createdAt,value
2019-06-20T00:03:04.297Z,8.70
2019-06-20T00:05:32.677Z,7.50
2019-06-20T00:08:01.006Z,9.75
2019-06-20T00:10:29.330Z,7.10
2019-06-20T00:13:00.709Z,7.78
2019-06-20T00:15:27.382Z,7.53
2019-06-20T00:17:55.451Z,9.27
2019-06-20T00:22:51.589Z,8.38
2019-06-20T00:25:19.666Z,10.38
2019-06-20T00:27:47.966Z,9.78
2019-06-20T00:30:17.190Z,8.00
2019-06-20T00:32:45.561Z,7.50
2019-06-20T00:35:14.572Z,11.70
2019-06-20T00:37:42.932Z,9.23
2019-06-20T00:42:39.951Z,10.60
2019-06-20T00:45:09.230Z,7.67
2019-06-20T00:50:06.474Z,10.05
2019-06-20T00:52:34.545Z,7.50
2019-06-20T00:55:02.567Z,9.78
2019-06-20T00:57:31.449Z,7.60
2019-06-20T01:02:28.475Z,10.70
2019-06-20T01:04:56.874Z,7.17
2019-06-20T01:09:53.873Z,8.48
2019-06-20T01:12:21.908Z,8.23
2019-06-20T01:14:50.264Z,7.85
2019-06-20T01:17:18.682Z,10.48
2019-06-20T01:19:46.749Z,10.25
2019-06-20T01:22:15.124Z,7.80
2019-06-20T01:24:43.201Z,9.28
2019-06-20T01:29:39.620Z,8.63
2019-06-20T01:32:07.973Z,10.35
2019-06-20T01:34:36.066Z,10.00
2019-06-20T01:37:04.115Z,7.00
2019-06-20T01:39:32.173Z,6.90
2019-06-20T01:42:00.558Z,7.42
2019-06-20T01:44:28.625Z,8.07
2019-06-20T01:46:56.787Z,8.18
2019-06-20T01:49:24.923Z,6.62
2019-06-20T01:51:53.596Z,7.67
2019-06-20T01:56:49.720Z,6.97
2019-06-20T01:59:18.137Z,5.80
2019-06-20T02:01:46.518Z,6.40
2019-06-20T02:04:24.177Z,10.40
2019-06-20T02:09:20.372Z,5.50
2019-06-20T02:11:48.405Z,9.10
2019-06-20T02:14:16.477Z,7.53
2019-06-20T02:16:44.525Z,8.58
2019-06-20T02:19:12.848Z,7.83
2019-06-20T02:21:40.839Z,7.15
2019-06-20T02:24:09.184Z,7.40
2019-06-20T02:26:37.234Z,7.62
2019-06-20T02:29:05.308Z,6.20
2019-06-20T02:31:34.058Z,6.75
2019-06-20T02:36:31.489Z,8.15
2019-06-20T02:38:59.489Z,9.25
2019-06-20T02:41:27.840Z,13.20
2019-06-20T02:43:56.221Z,8.38
2019-06-20T02:46:24.414Z,9.73
2019-06-20T02:48:52.896Z,7.70
2019-06-20T02:51:23.316Z,9.83
2019-06-20T02:53:52.457Z,9.45
2019-06-20T02:56:20.492Z,6.97
2019-06-20T02:58:49.155Z,8.18
2019-06-20T03:03:45.561Z,6.33
2019-06-20T03:06:14.206Z,8.05
2019-06-20T03:08:42.889Z,6.60
2019-06-20T03:11:11.681Z,8.48
2019-06-20T03:16:07.752Z,6.25
2019-06-20T03:18:36.203Z,7.10
2019-06-20T03:23:32.811Z,10.28
2019-06-20T03:26:01.198Z,8.20
2019-06-20T03:28:29.534Z,8.30
2019-06-20T03:30:57.637Z,5.95
2019-06-20T03:33:26.008Z,5.40
2019-06-20T03:35:54.955Z,6.20
2019-06-20T03:38:23.545Z,5.62
2019-06-20T03:43:23.470Z,6.35
2019-06-20T03:45:51.521Z,7.00
2019-06-20T03:50:47.859Z,5.55
2019-06-20T03:53:16.469Z,6.75
2019-06-20T03:55:44.503Z,7.00
2019-06-20T03:58:12.924Z,7.47
2019-06-20T04:03:09.993Z,5.35
2019-06-20T04:05:38.048Z,6.20
2019-06-20T04:08:06.446Z,7.50
2019-06-20T04:10:35.027Z,7.10
2019-06-20T04:13:03.050Z,7.75
2019-06-20T04:15:31.420Z,6.40
2019-06-20T04:18:00.474Z,7.50
2019-06-20T04:20:28.557Z,6.62
2019-06-20T04:22:57.250Z,6.85
2019-06-20T04:25:25.607Z,6.85
2019-06-20T04:30:21.696Z,5.00
2019-06-20T04:32:50.125Z,6.35
2019-06-20T04:35:18.193Z,5.70
2019-06-20T04:37:46.277Z,7.15
2019-06-20T04:40:14.332Z,6.12
2019-06-20T04:42:42.729Z,6.47
2019-06-20T04:45:34.181Z,6.05
2019-06-20T04:50:17.581Z,8.08
2019-06-20T04:52:45.634Z,6.72
2019-06-20T04:55:13.755Z,6.62
2019-06-20T04:57:41.834Z,9.18
2019-06-20T05:00:10.197Z,6.80
2019-06-20T05:02:38.241Z,7.25
2019-06-20T05:05:07.079Z,7.47
2019-06-20T05:10:04.023Z,5.50
2019-06-20T05:12:32.395Z,7.07
2019-06-20T05:15:01.185Z,5.53
2019-06-20T05:17:29.241Z,11.30
2019-06-20T05:19:57.333Z,5.72
2019-06-20T05:22:25.433Z,6.00
2019-06-20T05:24:53.775Z,6.60
2019-06-20T05:27:22.204Z,5.07
2019-06-20T05:29:50.260Z,8.40
2019-06-20T05:32:18.304Z,6.50
2019-06-20T05:37:14.408Z,4.50
2019-06-20T05:39:42.430Z,8.70
2019-06-20T05:42:10.509Z,6.80
2019-06-20T05:44:39.171Z,7.17
2019-06-20T05:47:12.397Z,5.53
2019-06-20T05:49:37.259Z,6.87
2019-06-20T05:52:06.265Z,5.30
2019-06-20T05:57:03.731Z,32.38
2019-06-20T05:59:32.734Z,7.73
2019-06-20T06:02:00.776Z,8.58
2019-06-20T06:04:28.901Z,7.78
2019-06-20T06:06:57.357Z,6.78
2019-06-20T06:09:25.870Z,8.57
2019-06-20T06:11:53.951Z,8.88
2019-06-20T06:16:50.388Z,9.80
2019-06-20T06:19:18.872Z,12.00
2019-06-20T06:24:15.290Z,10.38
2019-06-20T06:26:43.412Z,8.00
2019-06-20T06:31:40.267Z,6.77
2019-06-20T06:34:08.335Z,7.53
2019-06-20T06:39:06.171Z,9.20
2019-06-20T06:41:34.251Z,10.23
2019-06-20T06:44:02.295Z,11.43
2019-06-20T06:46:43.684Z,9.17
2019-06-20T06:49:00.953Z,10.15
2019-06-20T06:51:29.122Z,8.17
2019-06-20T06:53:57.586Z,11.90
2019-06-20T06:58:54.242Z,9.27
2019-06-20T07:01:22.612Z,8.60
2019-06-20T07:03:50.997Z,19.48
2019-06-20T07:06:19.369Z,33.67
2019-06-20T07:08:47.459Z,9.58
2019-06-20T07:11:15.928Z,9.35
2019-06-20T07:13:44.366Z,8.75
2019-06-20T07:18:41.171Z,12.50
2019-06-20T07:21:09.610Z,7.30
2019-06-20T07:23:38.155Z,9.50
2019-06-20T07:26:06.209Z,8.90
2019-06-20T07:28:35.212Z,10.32
2019-06-20T07:31:03.508Z,9.63
2019-06-20T07:33:31.570Z,9.13
2019-06-20T07:38:29.046Z,10.30
2019-06-20T07:40:57.455Z,8.97
2019-06-20T07:46:02.467Z,8.15
2019-06-20T07:48:23.270Z,6.53
2019-06-20T07:50:51.319Z,8.40
2019-06-20T07:53:19.390Z,9.08
2019-06-20T07:55:48.101Z,5.20
2019-06-20T07:58:16.621Z,27.98
2019-06-20T08:00:44.706Z,11.63
2019-06-20T08:05:41.444Z,4.60
2019-06-20T08:08:10.299Z,5.78
2019-06-20T08:10:38.859Z,5.35
2019-06-20T08:13:07.569Z,8.05
2019-06-20T08:15:35.616Z,4.90
2019-06-20T08:18:03.999Z,5.10
2019-06-20T08:20:32.039Z,10.28
2019-06-20T08:25:28.186Z,7.17
2019-06-20T08:27:58.810Z,4.53
2019-06-20T08:32:59.156Z,8.80
2019-06-20T08:35:27.140Z,5.37
2019-06-20T08:37:56.075Z,6.62
2019-06-20T08:40:26.060Z,5.50
2019-06-20T08:42:55.235Z,6.95
2019-06-20T08:45:25.723Z,12.05
2019-06-20T08:47:53.896Z,7.90
2019-06-20T08:52:52.082Z,6.10
2019-06-20T08:55:20.572Z,8.38
2019-06-20T08:57:48.633Z,7.67
2019-06-20T09:00:17.130Z,5.70
2019-06-20T09:02:45.666Z,6.70
2019-06-20T09:05:14.147Z,5.83
2019-06-20T09:07:42.905Z,10.20
2019-06-20T09:10:11.858Z,5.03
2019-06-20T09:12:39.964Z,8.60
2019-06-20T09:15:28.539Z,5.87
2019-06-20T09:17:56.973Z,8.33
2019-06-20T09:20:25.142Z,6.43
2019-06-20T09:25:23.361Z,10.98
2019-06-20T09:27:52.640Z,6.87
2019-06-20T09:32:52.296Z,5.80
2019-06-20T09:35:21.668Z,6.17
2019-06-20T09:37:51.767Z,7.28
2019-06-20T09:40:19.549Z,7.95
2019-06-20T09:42:47.652Z,5.47
2019-06-20T09:45:17.301Z,7.50
2019-06-20T09:47:45.518Z,5.58
2019-06-20T09:52:42.786Z,10.45
2019-06-20T09:55:13.139Z,13.20
2019-06-20T09:57:43.596Z,8.90
2019-06-20T10:00:13.757Z,9.20
2019-06-20T10:02:41.850Z,11.22
2019-06-20T10:05:12.266Z,10.53
2019-06-20T10:07:40.324Z,12.60
2019-06-20T10:10:09.236Z,11.40
2019-06-20T10:15:06.198Z,14.37
2019-06-20T10:17:34.241Z,12.45
2019-06-20T10:20:02.676Z,13.83
2019-06-20T10:22:30.723Z,11.83
2019-06-20T10:24:59.069Z,15.43
2019-06-20T10:29:55.818Z,38.75
2019-06-20T10:32:23.901Z,18.02
2019-06-20T10:34:52.736Z,18.07
2019-06-20T10:37:20.859Z,23.73
2019-06-20T10:39:50.012Z,22.55
2019-06-20T10:42:18.179Z,19.40
2019-06-20T10:44:47.668Z,21.93
2019-06-20T10:47:15.836Z,22.75
2019-06-20T10:49:45.058Z,26.10
2019-06-20T10:52:14.123Z,19.62
2019-06-20T10:54:43.310Z,20.27
2019-06-20T10:59:41.108Z,19.57
2019-06-20T11:02:09.909Z,17.60
2019-06-20T11:04:40.544Z,18.23
2019-06-20T11:07:08.077Z,18.82
2019-06-20T11:09:36.161Z,21.33
2019-06-20T11:12:04.220Z,15.90
2019-06-20T11:14:32.517Z,19.00
2019-06-20T11:17:00.894Z,16.70
2019-06-20T11:24:00.856Z,20.67
2019-06-20T11:26:29.529Z,18.43
2019-06-20T11:31:25.648Z,19.17
2019-06-20T11:33:53.741Z,14.58
2019-06-20T11:38:50.824Z,17.65
2019-06-20T11:41:19.173Z,16.53
2019-06-20T11:43:47.196Z,13.62
2019-06-20T11:46:15.293Z,14.10
2019-06-20T11:48:43.332Z,13.72
2019-06-20T11:51:11.418Z,14.57
2019-06-20T11:53:40.663Z,16.07
2019-06-20T11:58:36.993Z,14.25
2019-06-20T12:01:05.708Z,16.20
2019-06-20T12:03:33.767Z,15.23
2019-06-20T12:06:01.817Z,15.32
2019-06-20T12:08:30.477Z,18.95
2019-06-20T12:10:58.666Z,13.40
2019-06-20T12:13:26.707Z,12.03
2019-06-20T12:15:54.798Z,13.68
2019-06-20T12:20:51.593Z,14.78
2019-06-20T12:23:20.041Z,15.38
2019-06-20T12:25:48.766Z,12.35
2019-06-20T12:28:17.362Z,13.80
2019-06-20T12:30:48.385Z,18.80
2019-06-20T12:33:23.627Z,13.65
2019-06-20T12:35:51.897Z,9.78
2019-06-20T12:38:20.798Z,15.13
2019-06-20T12:40:50.411Z,23.73
2019-06-20T12:43:19.492Z,36.80
2019-06-20T12:45:47.658Z,17.25
2019-06-20T12:48:16.400Z,14.80
2019-06-20T12:50:45.744Z,13.13
2019-06-20T12:55:42.786Z,12.87
2019-06-20T12:58:11.448Z,15.35
2019-06-20T13:00:41.625Z,13.08
2019-06-20T13:03:10.065Z,14.28
2019-06-20T13:05:38.470Z,14.93
2019-06-20T13:10:38.639Z,77.82
2019-06-20T13:13:06.540Z,18.25
2019-06-20T13:15:35.354Z,13.05
2019-06-20T13:18:03.426Z,11.80
2019-06-20T13:20:31.978Z,10.68
2019-06-20T13:23:00.419Z,13.05
2019-06-20T13:25:28.908Z,10.48
2019-06-20T13:27:57.541Z,12.03
2019-06-20T13:30:25.847Z,13.75
2019-06-20T13:32:54.249Z,15.28
2019-06-20T13:37:50.782Z,11.28
2019-06-20T13:40:19.126Z,15.88
2019-06-20T13:42:48.134Z,13.58
2019-06-20T13:45:19.445Z,14.18
2019-06-20T13:47:47.907Z,13.13
2019-06-20T13:52:46.770Z,13.62
2019-06-20T13:55:15.236Z,19.37
2019-06-20T13:57:45.243Z,11.85
2019-06-20T14:00:15.198Z,25.30
2019-06-20T14:02:44.937Z,12.50
2019-06-20T14:05:13.690Z,11.43
2019-06-20T14:07:46.740Z,13.50
2019-06-20T14:12:41.861Z,9.85
2019-06-20T14:15:10.321Z,9.05
2019-06-20T14:20:08.406Z,11.77
2019-06-20T14:22:37.373Z,9.13
2019-06-20T14:27:35.103Z,11.03
2019-06-20T14:30:03.602Z,9.60
2019-06-20T14:32:32.293Z,11.90
2019-06-20T14:35:00.745Z,9.88
2019-06-20T14:37:28.886Z,11.12
2019-06-20T14:39:57.520Z,12.10
2019-06-20T14:42:25.623Z,11.85
2019-06-20T14:44:54.293Z,9.15
2019-06-20T14:47:22.559Z,10.72
2019-06-20T14:49:50.613Z,9.63
2019-06-20T14:52:18.665Z,7.75
2019-06-20T14:54:47.494Z,7.10
2019-06-20T14:57:15.654Z,8.85
2019-06-20T14:59:44.987Z,8.88
2019-06-20T15:02:13.940Z,8.15
2019-06-20T15:04:42.029Z,8.00
2019-06-20T15:09:38.773Z,7.07
2019-06-20T15:12:06.837Z,7.72
2019-06-20T15:17:03.530Z,7.15
2019-06-20T15:19:31.593Z,7.50
2019-06-20T15:21:59.978Z,7.10
2019-06-20T15:24:28.058Z,10.15
2019-06-20T15:26:56.473Z,7.03
2019-06-20T15:31:52.939Z,5.92
2019-06-20T15:34:20.981Z,6.40
2019-06-20T15:36:50.272Z,5.50
2019-06-20T15:39:19.446Z,4.20
2019-06-20T15:41:48.762Z,4.15
2019-06-20T15:44:17.162Z,5.10
2019-06-20T15:46:45.190Z,5.75
2019-06-20T15:49:16.336Z,6.10
2019-06-20T15:51:43.246Z,4.40
2019-06-20T15:54:11.392Z,5.20
2019-06-20T15:59:07.645Z,5.65
2019-06-20T16:01:36.541Z,7.83
2019-06-20T16:04:05.205Z,6.00
2019-06-20T16:06:33.781Z,5.92
2019-06-20T16:09:01.773Z,5.10
2019-06-20T16:11:29.821Z,6.58
2019-06-20T16:13:58.197Z,5.60
2019-06-20T16:16:26.577Z,5.53
2019-06-20T16:18:55.391Z,6.80
2019-06-20T16:21:24.049Z,5.72
2019-06-20T16:26:21.072Z,6.00
2019-06-20T16:28:49.543Z,5.40
2019-06-20T16:31:26.673Z,9.10
2019-06-20T16:33:47.497Z,8.45
2019-06-20T16:36:15.565Z,5.40
2019-06-20T16:38:43.916Z,5.35
2019-06-20T16:41:11.968Z,7.17
2019-06-20T16:43:40.001Z,5.42
2019-06-20T16:48:38.202Z,5.87
2019-06-20T16:51:07.701Z,6.03
2019-06-20T16:53:38.469Z,6.92
2019-06-20T16:56:08.823Z,6.08
2019-06-20T16:58:39.629Z,6.17
2019-06-20T17:01:10.941Z,7.30
2019-06-20T17:03:42.171Z,6.00
2019-06-20T17:06:10.789Z,6.60
2019-06-20T17:08:40.151Z,7.58
2019-06-20T17:11:09.787Z,6.35
2019-06-20T17:13:41.792Z,8.17
2019-06-20T17:16:11.557Z,6.00
2019-06-20T17:18:42.761Z,7.10
2019-06-20T17:21:12.584Z,5.67
2019-06-20T17:26:15.092Z,5.10
2019-06-20T17:28:46.877Z,4.40
2019-06-20T17:33:57.111Z,5.62
2019-06-20T17:36:18.831Z,6.17
2019-06-20T17:41:20.429Z,6.80
2019-06-20T17:43:55.031Z,7.03
2019-06-20T17:48:56.766Z,7.30
2019-06-20T17:51:28.978Z,7.90
2019-06-20T17:56:31.288Z,6.30
2019-06-20T17:59:01.159Z,6.80
2019-06-20T18:01:30.144Z,7.15
2019-06-20T18:04:12.817Z,7.30
2019-06-20T18:06:28.415Z,6.07
2019-06-20T18:08:56.473Z,8.67
2019-06-20T18:11:24.595Z,7.55
2019-06-20T18:13:53.000Z,6.12
2019-06-20T18:16:25.328Z,6.72
2019-06-20T18:18:51.103Z,8.68
2019-06-20T18:23:47.277Z,7.42
2019-06-20T18:26:15.295Z,10.40
2019-06-20T18:28:43.617Z,6.13
2019-06-20T18:31:11.993Z,9.93
2019-06-20T18:33:40.080Z,8.30
2019-06-20T18:38:36.489Z,7.17
2019-06-20T18:41:04.539Z,7.70
2019-06-20T18:46:01.220Z,6.40
2019-06-20T18:48:29.585Z,7.45
2019-06-20T18:50:57.622Z,9.50
2019-06-20T18:53:25.966Z,7.62
2019-06-20T18:55:54.325Z,7.72
2019-06-20T18:58:22.376Z,8.80
2019-06-20T19:00:50.465Z,9.70
2019-06-20T19:03:21.310Z,6.90
2019-06-20T19:05:48.457Z,9.50
2019-06-20T19:08:16.959Z,9.83
2019-06-20T19:10:45.285Z,9.57
2019-06-20T19:13:13.618Z,9.53
2019-06-20T19:15:41.798Z,9.15
2019-06-20T19:20:38.759Z,12.90
2019-06-20T19:23:06.867Z,8.53
2019-06-20T19:25:35.194Z,10.83
2019-06-20T19:28:03.344Z,9.95
2019-06-20T19:33:06.820Z,10.40
2019-06-20T19:35:35.261Z,11.50
2019-06-20T19:38:03.753Z,9.80
2019-06-20T19:40:33.286Z,11.10
2019-06-20T19:43:01.373Z,8.50
2019-06-20T19:45:29.426Z,9.20
2019-06-20T19:47:57.827Z,11.50
2019-06-20T19:52:54.290Z,8.90
2019-06-20T19:55:22.806Z,8.63
2019-06-20T19:57:51.594Z,9.50
2019-06-20T20:00:20.491Z,7.83
2019-06-20T20:02:49.164Z,8.80
2019-06-20T20:05:19.502Z,9.10
2019-06-20T20:07:47.014Z,9.63
2019-06-20T20:12:43.251Z,14.70
2019-06-20T20:15:11.400Z,10.40
2019-06-20T20:17:39.454Z,10.03
2019-06-20T20:20:07.996Z,9.13
2019-06-20T20:22:36.314Z,8.00
2019-06-20T20:25:05.013Z,8.95
2019-06-20T20:27:33.082Z,8.28
2019-06-20T20:32:29.533Z,12.30
2019-06-20T20:34:57.519Z,10.82
2019-06-20T20:37:27.867Z,11.83
2019-06-20T20:39:58.627Z,12.33
2019-06-20T20:42:29.117Z,11.73
2019-06-20T20:44:59.728Z,10.43
2019-06-20T20:47:30.239Z,10.68
2019-06-20T20:50:00.978Z,11.25
2019-06-20T20:55:01.037Z,11.03
2019-06-20T20:57:29.623Z,9.50
2019-06-20T21:02:26.872Z,12.27
2019-06-20T21:04:55.301Z,11.93
2019-06-20T21:07:23.625Z,12.73
2019-06-20T21:09:51.977Z,10.95
2019-06-20T21:12:20.614Z,9.10
2019-06-20T21:14:48.700Z,11.65
2019-06-20T21:17:17.020Z,11.95
2019-06-20T21:22:14.141Z,11.45
2019-06-20T21:24:42.180Z,9.47
2019-06-20T21:27:10.569Z,12.50
2019-06-20T21:29:38.607Z,9.50
2019-06-20T21:32:06.661Z,9.35
2019-06-20T21:34:35.258Z,9.90
2019-06-20T21:37:04.042Z,10.13
2019-06-20T21:42:00.784Z,12.73
2019-06-20T21:44:29.218Z,11.08
2019-06-20T21:49:26.402Z,9.10
2019-06-20T21:51:55.238Z,10.23
2019-06-20T21:54:23.830Z,12.70
2019-06-20T21:56:52.066Z,9.78
2019-06-20T21:59:21.540Z,10.15
2019-06-20T22:01:50.421Z,13.62
2019-06-20T22:04:18.807Z,10.68
2019-06-20T22:09:15.631Z,10.25
2019-06-20T22:11:44.361Z,10.55
2019-06-20T22:14:12.731Z,10.70
2019-06-20T22:16:40.731Z,12.05
2019-06-20T22:19:09.084Z,10.93
2019-06-20T22:21:37.568Z,12.60
2019-06-20T22:24:06.355Z,11.48
2019-06-20T22:29:02.784Z,11.33
2019-06-20T22:31:31.130Z,12.55
2019-06-20T22:33:59.809Z,10.28
2019-06-20T22:36:39.804Z,13.40
2019-06-20T22:38:58.776Z,13.20
2019-06-20T22:41:27.184Z,13.80
2019-06-20T22:43:55.560Z,10.72
2019-06-20T22:48:51.766Z,11.70
2019-06-20T22:51:19.887Z,10.53
2019-06-20T22:53:48.086Z,12.60
2019-06-20T22:56:16.441Z,12.18
2019-06-20T22:58:44.867Z,13.25
2019-06-20T23:01:13.426Z,16.42
2019-06-20T23:03:41.947Z,17.40
2019-06-20T23:08:38.559Z,19.23
2019-06-20T23:11:07.389Z,20.60
2019-06-20T23:13:35.515Z,20.32
2019-06-20T23:16:04.218Z,28.17
2019-06-20T23:18:32.307Z,31.82
2019-06-20T23:21:04.582Z,36.60
2019-06-20T23:23:30.226Z,42.65
2019-06-20T23:28:28.487Z,48.30
2019-06-20T23:30:56.587Z,56.77
2019-06-20T23:33:25.109Z,72.05
2019-06-20T23:35:53.504Z,88.20
2019-06-20T23:38:21.900Z,94.70
2019-06-20T23:40:50.736Z,92.60
2019-06-20T23:43:18.801Z,93.27
2019-06-20T23:48:15.264Z,97.08
2019-06-20T23:50:43.326Z,93.27
2019-06-20T23:53:26.135Z,115.72
2019-06-20T23:55:54.529Z,105.78
2019-06-20T23:58:22.878Z,111.47
